createdAt,value
2023-02-24T00:01:37.229Z,97951.69
2023-02-24T00:04:13.417Z,97941.88
2023-02-24T00:06:45.901Z,97941.19
2023-02-24T00:09:22.675Z,97941.19
2023-02-24T00:12:16.163Z,97935.94
2023-02-24T00:14:48.986Z,97930.72
2023-02-24T00:17:20.949Z,97941.38
2023-02-24T00:19:57.635Z,97940.09
2023-02-24T00:22:30.284Z,97953.31
2023-02-24T00:25:04.301Z,97950.59
2023-02-24T00:27:36.202Z,97942.75
2023-02-24T00:30:12.370Z,97947.88
2023-02-24T00:32:44.752Z,97941.91
2023-02-24T00:35:17.756Z,97936.19
2023-02-24T00:37:51.690Z,97930.94
2023-02-24T00:40:24.467Z,97938.25
2023-02-24T00:42:56.817Z,97934.13
2023-02-24T00:45:31.203Z,97937.44
2023-02-24T00:48:04.989Z,97937.38
2023-02-24T00:50:39.038Z,97938.78
2023-02-24T00:53:12.173Z,97943.31
2023-02-24T00:55:44.450Z,97939.91
2023-02-24T00:58:19.854Z,97944.94
2023-02-24T01:00:52.262Z,97931.06
2023-02-24T01:03:26.476Z,97939.44
2023-02-24T01:06:03.720Z,97935.31
2023-02-24T01:08:47.716Z,97929.91
2023-02-24T01:11:56.782Z,97925.41
2023-02-24T01:14:32.590Z,97920.31
2023-02-24T01:17:09.965Z,97916.09
2023-02-24T01:19:44.259Z,97917.38
2023-02-24T01:22:20.116Z,97911.34
2023-02-24T01:24:52.230Z,97903.50
2023-02-24T01:27:24.985Z,97900.16
2023-02-24T01:29:57.742Z,97906.13
2023-02-24T01:32:32.354Z,97905.91
2023-02-24T01:35:04.719Z,97903.25
2023-02-24T01:37:37.068Z,97906.44
2023-02-24T01:40:20.672Z,97898.63
2023-02-24T01:42:53.378Z,97896.63
2023-02-24T01:45:30.346Z,97901.09
2023-02-24T01:48:07.083Z,97894.06
2023-02-24T01:50:39.535Z,97891.53
2023-02-24T01:53:12.495Z,97890.94
2023-02-24T01:55:49.898Z,97892.19
2023-02-24T01:58:29.549Z,97895.41
2023-02-24T02:01:08.594Z,97885.00
2023-02-24T02:03:42.659Z,97881.00
2023-02-24T02:06:18.176Z,97881.91
2023-02-24T02:08:50.819Z,97878.56
2023-02-24T02:11:23.665Z,97878.59
2023-02-24T02:13:57.325Z,97870.53
2023-02-24T02:17:25.241Z,97884.97
2023-02-24T02:20:16.061Z,97881.41
2023-02-24T02:24:00.129Z,97875.75
2023-02-24T02:27:20.976Z,97877.88
2023-02-24T02:30:06.569Z,97875.75
2023-02-24T02:33:04.684Z,97866.69
2023-02-24T02:36:01.033Z,97864.69
2023-02-24T02:38:47.386Z,97868.03
2023-02-24T02:41:48.735Z,97879.75
2023-02-24T02:44:44.981Z,97880.41
2023-02-24T02:47:25.619Z,97880.41
2023-02-24T02:50:13.097Z,97878.22
2023-02-24T02:52:58.794Z,97888.69
2023-02-24T02:55:42.571Z,97887.19
2023-02-24T02:58:23.549Z,97887.97
2023-02-24T03:01:03.501Z,97878.84
2023-02-24T03:03:41.335Z,97883.47
2023-02-24T03:06:44.743Z,97880.72
2023-02-24T03:09:24.660Z,97878.00
2023-02-24T03:12:04.981Z,97875.00
2023-02-24T03:14:46.020Z,97871.88
2023-02-24T03:17:24.922Z,97875.22
2023-02-24T03:20:17.509Z,97868.13
2023-02-24T03:23:09.813Z,97865.13
2023-02-24T03:25:59.270Z,97864.94
2023-02-24T03:28:43.306Z,97863.09
2023-02-24T03:31:44.271Z,97866.94
2023-02-24T03:34:29.068Z,97863.59
2023-02-24T03:37:02.409Z,97869.91
2023-02-24T03:39:36.961Z,97859.13
2023-02-24T03:42:23.951Z,97857.13
2023-02-24T03:44:58.245Z,97861.00
2023-02-24T03:47:33.526Z,97861.63
2023-02-24T03:50:16.998Z,97862.25
2023-02-24T03:53:36.816Z,97856.19
2023-02-24T03:56:59.749Z,97846.25
2023-02-24T04:00:20.011Z,97850.09
2023-02-24T04:03:49.254Z,97853.34
2023-02-24T04:06:58.025Z,97854.72
2023-02-24T04:09:44.173Z,97852.75
2023-02-24T04:13:21.557Z,97851.50
2023-02-24T04:16:03.262Z,97851.72
2023-02-24T04:18:35.921Z,97849.06
2023-02-24T04:21:08.742Z,97851.06
2023-02-24T04:23:44.871Z,97842.81
2023-02-24T04:26:18.716Z,97836.38
2023-02-24T04:28:52.010Z,97830.56
2023-02-24T04:31:28.108Z,97828.66
2023-02-24T04:34:01.916Z,97829.97
2023-02-24T04:36:41.632Z,97821.50
2023-02-24T04:39:16.380Z,97824.19
2023-02-24T04:41:49.767Z,97823.56
2023-02-24T04:44:22.381Z,97816.88
2023-02-24T04:46:55.986Z,97819.50
2023-02-24T04:49:28.387Z,97814.84
2023-02-24T04:52:00.468Z,97804.91
2023-02-24T04:54:35.230Z,97807.59
2023-02-24T04:57:07.890Z,97803.03
2023-02-24T04:59:41.102Z,97789.28
2023-02-24T05:02:18.186Z,97791.28
2023-02-24T05:07:47.710Z,97771.06
2023-02-24T05:10:20.311Z,97774.56
2023-02-24T05:12:54.105Z,97765.75
2023-02-24T05:15:33.336Z,97763.56
2023-02-24T05:18:08.752Z,97769.31
2023-02-24T05:21:11.235Z,97760.69
2023-02-24T05:23:47.102Z,97758.09
2023-02-24T05:26:22.008Z,97767.91
2023-02-24T05:28:56.819Z,97761.94
2023-02-24T05:31:31.042Z,97760.00
2023-02-24T05:34:08.692Z,97759.41
2023-02-24T05:36:40.846Z,97750.16
2023-02-24T05:39:19.557Z,97753.47
2023-02-24T05:41:55.039Z,97751.44
2023-02-24T05:44:27.419Z,97744.13
2023-02-24T05:46:59.857Z,97747.16
2023-02-24T05:49:35.045Z,97750.38
2023-02-24T05:52:09.614Z,97747.28
2023-02-24T05:54:45.428Z,97739.50
2023-02-24T05:57:21.160Z,97749.41
2023-02-24T05:59:56.212Z,97739.66
2023-02-24T06:02:29.599Z,97743.00
2023-02-24T06:05:04.374Z,97742.94
2023-02-24T06:07:37.825Z,97740.50
2023-02-24T06:10:11.172Z,97741.22
2023-02-24T06:12:43.648Z,97742.63
2023-02-24T06:15:16.829Z,97743.25
2023-02-24T06:17:49.588Z,97751.00
2023-02-24T06:20:27.158Z,97753.06
2023-02-24T06:22:59.311Z,97751.78
2023-02-24T06:25:33.756Z,97749.19
2023-02-24T06:28:06.981Z,97749.25
2023-02-24T06:30:39.681Z,97740.16
2023-02-24T06:33:12.801Z,97740.00
2023-02-24T06:35:45.174Z,97737.91
2023-02-24T06:38:18.828Z,97742.28
2023-02-24T06:40:52.541Z,97741.59
2023-02-24T06:43:25.638Z,97744.72
2023-02-24T06:45:58.048Z,97738.81
2023-02-24T06:48:29.955Z,97733.63
2023-02-24T06:51:14.623Z,97730.38
2023-02-24T06:53:46.595Z,97732.31
2023-02-24T06:56:20.961Z,97741.44
2023-02-24T06:58:56.257Z,97736.78
2023-02-24T07:01:30.884Z,97729.56
2023-02-24T07:04:07.538Z,97731.00
2023-02-24T07:06:42.608Z,97729.00
2023-02-24T07:09:17.328Z,97727.66
2023-02-24T07:11:53.361Z,97726.56
2023-02-24T07:14:29.241Z,97730.59
2023-02-24T07:17:02.544Z,97722.19
2023-02-24T07:19:34.994Z,97735.31
2023-02-24T07:22:12.711Z,97725.56
2023-02-24T07:24:46.302Z,97719.13
2023-02-24T07:27:28.244Z,97715.25
2023-02-24T07:30:05.991Z,97700.28
2023-02-24T07:32:41.143Z,97700.38
2023-02-24T07:35:14.468Z,97700.50
2023-02-24T07:37:49.027Z,97700.56
2023-02-24T07:40:22.277Z,97700.34
2023-02-24T07:42:57.495Z,97699.50
2023-02-24T07:45:29.932Z,97699.50
2023-02-24T07:48:03.792Z,97698.69
2023-02-24T07:50:36.121Z,97701.75
2023-02-24T07:53:09.931Z,97708.38
2023-02-24T07:55:42.863Z,97700.50
2023-02-24T07:58:14.823Z,97706.88
2023-02-24T08:01:00.031Z,97702.88
2023-02-24T08:03:33.137Z,97714.66
2023-02-24T08:06:27.481Z,97690.59
2023-02-24T08:09:46.058Z,97695.34
2023-02-24T08:12:23.219Z,97689.50
2023-02-24T08:15:01.039Z,97681.84
2023-02-24T08:17:33.310Z,97676.59
2023-02-24T08:20:15.582Z,97674.63
2023-02-24T08:22:53.735Z,97672.69
2023-02-24T08:25:36.417Z,97666.75
2023-02-24T08:28:11.603Z,97670.72
2023-02-24T08:30:46.422Z,97670.06
2023-02-24T08:33:22.113Z,97653.66
2023-02-24T08:36:02.947Z,97656.28
2023-02-24T08:38:42.516Z,97649.09
2023-02-24T08:41:18.701Z,97647.81
2023-02-24T08:43:50.729Z,97650.44
2023-02-24T08:46:27.096Z,97651.75
2023-02-24T08:49:09.746Z,97645.25
2023-02-24T08:51:44.522Z,97647.22
2023-02-24T08:54:32.050Z,97647.22
2023-02-24T08:57:10.506Z,97647.22
2023-02-24T08:59:49.782Z,97642.63
2023-02-24T09:02:27.673Z,97647.88
2023-02-24T09:05:14.015Z,97640.66
2023-02-24T09:07:55.672Z,97645.72
2023-02-24T09:10:28.616Z,97641.16
2023-02-24T09:13:01.900Z,97639.06
2023-02-24T09:15:41.432Z,97639.47
2023-02-24T09:18:14.756Z,97639.88
2023-02-24T09:20:58.046Z,97647.06
2023-02-24T09:23:31.296Z,97649.13
2023-02-24T09:26:11.047Z,97659.59
2023-02-24T09:28:55.323Z,97649.09
2023-02-24T09:31:40.561Z,97639.19
2023-02-24T09:34:19.179Z,97645.13
2023-02-24T09:37:03.713Z,97642.50
2023-02-24T09:39:55.671Z,97624.69
2023-02-24T09:42:46.972Z,97617.91
2023-02-24T09:45:34.200Z,97613.22
2023-02-24T09:48:23.465Z,97602.56
2023-02-24T09:51:05.295Z,97608.56
2023-02-24T09:53:41.901Z,97611.25
2023-02-24T09:56:43.156Z,97613.41
2023-02-24T09:59:27.931Z,97608.69
2023-02-24T10:02:19.373Z,97603.25
2023-02-24T10:05:29.233Z,97590.34
2023-02-24T10:08:02.070Z,97602.25
2023-02-24T10:10:38.750Z,97600.44
2023-02-24T10:13:30.892Z,97603.66
2023-02-24T10:16:09.621Z,97605.63
2023-02-24T10:19:01.896Z,97596.91
2023-02-24T10:22:00.436Z,97583.75
2023-02-24T10:24:49.900Z,97597.72
2023-02-24T10:27:30.088Z,97599.03
2023-02-24T10:30:20.749Z,97604.31
2023-02-24T10:32:58.755Z,97592.53
2023-02-24T10:35:35.749Z,97583.13
2023-02-24T10:38:08.656Z,97579.03
2023-02-24T10:40:57.113Z,97577.28
2023-02-24T10:43:31.781Z,97572.47
2023-02-24T10:46:07.525Z,97572.59
2023-02-24T10:48:41.816Z,97571.75
2023-02-24T10:51:30.751Z,97575.59
2023-02-24T10:54:33.232Z,97570.94
2023-02-24T10:57:08.476Z,97565.47
2023-02-24T11:00:17.629Z,97566.13
2023-02-24T11:02:57.987Z,97561.06
2023-02-24T11:06:02.432Z,97559.25
2023-02-24T11:08:40.213Z,97554.41
2023-02-24T11:11:53.960Z,97551.06
2023-02-24T11:14:44.653Z,97546.69
2023-02-24T11:17:27.005Z,97543.34
2023-02-24T11:20:11.239Z,97542.16
2023-02-24T11:22:45.784Z,97524.13
2023-02-24T11:25:34.173Z,97523.44
2023-02-24T11:28:38.593Z,97526.38
2023-02-24T11:32:07.005Z,97522.06
2023-02-24T11:35:21.058Z,97515.44
2023-02-24T11:38:10.424Z,97504.84
2023-02-24T11:40:49.423Z,97506.31
2023-02-24T11:43:27.459Z,97506.88
2023-02-24T11:46:21.239Z,97498.00
2023-02-24T11:48:58.135Z,97497.09
2023-02-24T11:51:37.154Z,97485.97
2023-02-24T11:54:13.980Z,97476.41
2023-02-24T11:56:55.802Z,97469.28
2023-02-24T11:59:38.757Z,97465.66
2023-02-24T12:02:47.008Z,97466.09
2023-02-24T12:05:26.896Z,97463.03
2023-02-24T12:08:13.430Z,97460.50
2023-02-24T12:10:56.446Z,97456.47
2023-02-24T12:13:36.668Z,97448.53
2023-02-24T12:16:33.632Z,97448.97
2023-02-24T12:19:24.329Z,97446.03
2023-02-24T12:22:17.361Z,97445.75
2023-02-24T12:24:52.291Z,97448.13
2023-02-24T12:27:49.068Z,97439.06
2023-02-24T12:30:38.851Z,97421.97
2023-02-24T12:33:33.450Z,97420.03
2023-02-24T12:36:36.087Z,97423.78
2023-02-24T12:39:28.796Z,97425.53
2023-02-24T12:42:29.011Z,97407.44
2023-02-24T12:45:23.198Z,97414.31
2023-02-24T12:48:15.178Z,97414.88
2023-02-24T12:51:17.026Z,97406.88
2023-02-24T12:54:15.797Z,97399.44
2023-02-24T12:57:21.982Z,97394.59
2023-02-24T12:59:57.674Z,97390.41
2023-02-24T13:03:12.199Z,97391.25
2023-02-24T13:06:28.709Z,97389.06
2023-02-24T13:09:36.199Z,97382.97
2023-02-24T13:12:51.945Z,97384.91
2023-02-24T13:15:27.795Z,97381.59
2023-02-24T13:17:59.939Z,97373.00
2023-02-24T13:20:37.299Z,97377.38
2023-02-24T13:23:22.513Z,97362.09
2023-02-24T13:25:56.336Z,97357.44
2023-02-24T13:28:33.322Z,97356.09
2023-02-24T13:31:15.081Z,97354.97
2023-02-24T13:33:48.437Z,97349.91
2023-02-24T13:36:24.858Z,97341.78
2023-02-24T13:39:21.820Z,97334.41
2023-02-24T13:42:31.078Z,97338.34
2023-02-24T13:45:09.211Z,97334.47
2023-02-24T13:48:10.876Z,97331.69
2023-02-24T13:51:14.181Z,97326.94
2023-02-24T13:54:18.050Z,97329.69
2023-02-24T13:57:26.549Z,97328.41
2023-02-24T14:00:04.071Z,97322.53
2023-02-24T14:02:45.878Z,97320.66
2023-02-24T14:05:36.000Z,97305.75
2023-02-24T14:08:08.450Z,97320.66
2023-02-24T14:10:46.430Z,97307.31
2023-02-24T14:13:51.000Z,97315.00
2023-02-24T14:16:33.048Z,97305.22
2023-02-24T14:19:14.119Z,97303.91
2023-02-24T14:22:01.486Z,97297.22
2023-02-24T14:24:33.831Z,97286.66
2023-02-24T14:27:06.247Z,97286.31
2023-02-24T14:29:44.183Z,97283.84
2023-02-24T14:32:22.860Z,97283.41
2023-02-24T14:34:55.448Z,97276.59
2023-02-24T14:37:31.771Z,97264.69
2023-02-24T14:40:05.925Z,97255.84
2023-02-24T14:42:49.334Z,97250.69
2023-02-24T14:45:26.545Z,97250.03
2023-02-24T14:47:58.914Z,97255.47
2023-02-24T14:50:34.140Z,97253.41
2023-02-24T14:53:12.784Z,97250.66
2023-02-24T14:55:50.405Z,97255.78
2023-02-24T14:58:51.232Z,97261.00
2023-02-24T15:01:44.267Z,97250.34
2023-02-24T15:04:43.977Z,97257.53
2023-02-24T15:07:24.551Z,97249.31
2023-02-24T15:09:57.731Z,97244.09
2023-02-24T15:12:35.260Z,97246.16
2023-02-24T15:15:19.705Z,97236.47
2023-02-24T15:18:04.236Z,97232.00
2023-02-24T15:20:40.402Z,97237.25
2023-02-24T15:23:33.064Z,97239.06
2023-02-24T15:26:11.153Z,97232.78
2023-02-24T15:28:43.110Z,97230.78
2023-02-24T15:31:21.734Z,97224.91
2023-02-24T15:34:00.427Z,97220.53
2023-02-24T15:36:35.946Z,97221.81
2023-02-24T15:39:18.393Z,97217.19
2023-02-24T15:41:52.814Z,97217.25
2023-02-24T15:44:30.814Z,97222.00
2023-02-24T15:47:29.159Z,97219.94
2023-02-24T15:50:01.110Z,97210.59
2023-02-24T15:52:33.843Z,97209.53
2023-02-24T15:55:06.882Z,97201.97
2023-02-24T15:57:39.200Z,97191.19
2023-02-24T16:00:21.434Z,97181.84
2023-02-24T16:02:54.500Z,97183.16
2023-02-24T16:05:27.168Z,97182.66
2023-02-24T16:07:59.906Z,97181.53
2023-02-24T16:10:31.856Z,97171.66
2023-02-24T16:13:04.535Z,97170.59
2023-02-24T16:15:39.374Z,97160.53
2023-02-24T16:18:22.251Z,97163.09
2023-02-24T16:20:56.694Z,97173.00
2023-02-24T16:23:29.073Z,97168.50
2023-02-24T16:26:00.969Z,97169.91
2023-02-24T16:28:33.889Z,97165.94
2023-02-24T16:31:09.159Z,97154.06
2023-02-24T16:33:54.136Z,97161.28
2023-02-24T16:36:28.482Z,97168.69
2023-02-24T16:39:05.285Z,97164.75
2023-02-24T16:41:37.243Z,97160.34
2023-02-24T16:44:11.080Z,97177.53
2023-02-24T16:46:45.171Z,97171.78
2023-02-24T16:49:20.762Z,97164.66
2023-02-24T16:51:52.736Z,97173.28
2023-02-24T16:54:29.570Z,97166.94
2023-02-24T16:57:01.990Z,97173.63
2023-02-24T16:59:34.402Z,97163.84
2023-02-24T17:02:06.405Z,97165.16
2023-02-24T17:04:38.799Z,97165.91
2023-02-24T17:07:11.325Z,97167.97
2023-02-24T17:09:44.110Z,97169.91
2023-02-24T17:12:21.882Z,97169.88
2023-02-24T17:14:54.911Z,97174.50
2023-02-24T17:17:26.863Z,97164.72
2023-02-24T17:19:59.619Z,97173.84
2023-02-24T17:22:32.152Z,97174.59
2023-02-24T17:25:04.911Z,97173.25
2023-02-24T17:27:36.806Z,97172.00
2023-02-24T17:30:13.618Z,97171.47
2023-02-24T17:32:46.147Z,97174.66
2023-02-24T17:35:18.992Z,97177.38
2023-02-24T17:37:51.541Z,97171.47
2023-02-24T17:40:24.104Z,97176.66
2023-02-24T17:42:55.998Z,97169.50
2023-02-24T17:45:28.324Z,97172.03
2023-02-24T17:48:00.650Z,97174.72
2023-02-24T17:50:32.961Z,97180.00
2023-02-24T17:53:04.841Z,97193.34
2023-02-24T17:55:37.182Z,97185.56
2023-02-24T17:58:09.506Z,97185.06
2023-02-24T18:00:42.346Z,97176.53
2023-02-24T18:03:15.476Z,97181.28
2023-02-24T18:05:48.259Z,97185.28
2023-02-24T18:08:20.989Z,97201.94
2023-02-24T18:10:53.280Z,97184.13
2023-02-24T18:13:27.350Z,97196.16
2023-02-24T18:16:00.546Z,97181.66
2023-02-24T18:18:32.450Z,97189.13
2023-02-24T18:21:06.295Z,97193.00
2023-02-24T18:23:40.442Z,97182.56
2023-02-24T18:26:13.418Z,97192.25
2023-02-24T18:28:45.430Z,97190.25
2023-02-24T18:31:21.143Z,97185.00
2023-02-24T18:33:55.693Z,97192.94
2023-02-24T18:36:28.592Z,97183.75
2023-02-24T18:39:00.940Z,97179.75
2023-02-24T18:41:33.778Z,97187.00
2023-02-24T18:44:05.894Z,97177.94
2023-02-24T18:46:38.192Z,97186.50
2023-02-24T18:49:11.575Z,97179.34
2023-02-24T18:51:45.090Z,97182.63
2023-02-24T18:54:17.072Z,97168.09
2023-02-24T18:56:49.438Z,97170.09
2023-02-24T18:59:21.371Z,97173.34
2023-02-24T19:01:57.210Z,97183.19
2023-02-24T19:04:29.537Z,97181.09
2023-02-24T19:07:01.880Z,97190.31
2023-02-24T19:09:34.084Z,97184.91
2023-02-24T19:12:07.014Z,97181.09
2023-02-24T19:14:38.928Z,97183.66
2023-02-24T19:17:11.255Z,97176.41
2023-02-24T19:19:43.515Z,97176.47
2023-02-24T19:22:15.816Z,97178.47
2023-02-24T19:24:47.731Z,97182.47
2023-02-24T19:27:20.108Z,97200.19
2023-02-24T19:29:54.341Z,97208.66
2023-02-24T19:32:26.895Z,97213.84
2023-02-24T19:34:58.927Z,97199.44
2023-02-24T19:37:31.665Z,97196.81
2023-02-24T19:40:03.963Z,97189.56
2023-02-24T19:42:36.276Z,97188.25
2023-02-24T19:45:09.231Z,97189.63
2023-02-24T19:47:44.069Z,97189.63
2023-02-24T19:50:17.085Z,97193.00
2023-02-24T19:52:49.393Z,97181.75
2023-02-24T19:55:21.322Z,97190.38
2023-02-24T19:57:55.342Z,97190.94
2023-02-24T20:00:27.252Z,97190.88
2023-02-24T20:02:59.658Z,97200.28
2023-02-24T20:05:31.620Z,97205.66
2023-02-24T20:08:04.352Z,97203.09
2023-02-24T20:10:36.252Z,97194.53
2023-02-24T20:13:09.154Z,97190.00
2023-02-24T20:15:41.321Z,97209.03
2023-02-24T20:18:13.636Z,97212.34
2023-02-24T20:20:46.457Z,97226.84
2023-02-24T20:23:18.735Z,97238.03
2023-02-24T20:25:57.080Z,97232.81
2023-02-24T20:28:29.650Z,97228.19
2023-02-24T20:31:09.628Z,97236.19
2023-02-24T20:33:44.081Z,97235.56
2023-02-24T20:36:23.978Z,97235.69
2023-02-24T20:38:59.356Z,97227.88
2023-02-24T20:41:31.272Z,97231.19
2023-02-24T20:44:03.633Z,97239.78
2023-02-24T20:46:35.877Z,97247.69
2023-02-24T20:49:11.862Z,97243.75
2023-02-24T20:51:43.977Z,97243.75
2023-02-24T20:54:16.875Z,97247.72
2023-02-24T20:56:49.230Z,97243.13
2023-02-24T20:59:22.568Z,97242.47
2023-02-24T21:01:54.946Z,97253.56
2023-02-24T21:04:27.747Z,97239.84
2023-02-24T21:06:59.861Z,97237.88
2023-02-24T21:09:37.508Z,97247.06
2023-02-24T21:12:10.044Z,97263.56
2023-02-24T21:14:43.885Z,97264.94
2023-02-24T21:17:16.223Z,97280.72
2023-02-24T21:19:48.608Z,97274.91
2023-02-24T21:22:20.579Z,97274.94
2023-02-24T21:24:52.853Z,97286.81
2023-02-24T21:27:26.274Z,97283.53
2023-02-24T21:29:58.622Z,97296.69
2023-02-24T21:32:31.080Z,97296.75
2023-02-24T21:35:04.215Z,97304.63
2023-02-24T21:37:36.106Z,97296.06
2023-02-24T21:40:12.552Z,97294.06
2023-02-24T21:42:47.025Z,97301.31
2023-02-24T21:45:19.726Z,97297.38
2023-02-24T21:47:51.762Z,97309.84
2023-02-24T21:50:24.039Z,97304.63
2023-02-24T21:52:56.020Z,97305.91
2023-02-24T21:55:28.630Z,97312.41
2023-02-24T21:58:00.534Z,97317.03
2023-02-24T22:00:33.358Z,97318.38
2023-02-24T22:03:05.257Z,97330.91
2023-02-24T22:05:38.113Z,97335.50
2023-02-24T22:08:09.993Z,97334.88
2023-02-24T22:10:41.870Z,97334.22
2023-02-24T22:13:13.810Z,97333.56
2023-02-24T22:15:46.192Z,97349.31
2023-02-24T22:18:19.579Z,97351.97
2023-02-24T22:20:53.717Z,97354.59
2023-02-24T22:23:25.625Z,97359.84
2023-02-24T22:25:57.893Z,97360.50
2023-02-24T22:28:29.855Z,97357.22
2023-02-24T22:31:03.085Z,97359.84
2023-02-24T22:33:40.685Z,97354.59
2023-02-24T22:36:25.832Z,97353.28
2023-02-24T22:38:59.955Z,97351.34
2023-02-24T22:41:35.575Z,97344.16
2023-02-24T22:44:07.523Z,97343.50
2023-02-24T22:46:39.986Z,97363.16
2023-02-24T22:49:11.972Z,97355.28
2023-02-24T22:51:45.641Z,97367.03
2023-02-24T22:54:18.968Z,97377.56
2023-02-24T22:56:51.263Z,97382.78
2023-02-24T22:59:23.178Z,97390.00
2023-02-24T23:01:55.458Z,97397.88
2023-02-24T23:04:29.291Z,97389.31
2023-02-24T23:07:02.553Z,97388.63
2023-02-24T23:09:34.559Z,97384.03
2023-02-24T23:12:07.074Z,97381.34
2023-02-24T23:14:38.967Z,97374.81
2023-02-24T23:17:11.227Z,97372.84
2023-02-24T23:19:43.122Z,97369.56
2023-02-24T23:22:15.877Z,97367.63
2023-02-24T23:24:47.863Z,97347.94
2023-02-24T23:27:21.764Z,97340.16
2023-02-24T23:29:53.635Z,97351.88
2023-02-24T23:32:25.976Z,97355.78
2023-02-24T23:34:58.355Z,97370.19
2023-02-24T23:37:31.039Z,97372.09
2023-02-24T23:40:08.007Z,97378.69
2023-02-24T23:42:44.292Z,97366.94
2023-02-24T23:45:16.959Z,97352.56
2023-02-24T23:47:49.623Z,97348.69
2023-02-24T23:50:21.565Z,97336.84
2023-02-24T23:52:54.066Z,97342.03
2023-02-24T23:55:25.966Z,97340.72
2023-02-24T23:57:58.348Z,97351.88
